www.cux-wetter.de
Wetterdaten: Montag, 13.05.2013
Datum Zeit Temp. A. Feuchte A. Luftdruck Regen Wind Richtung Richtung Sonnenschein Solar Taupunkt Windchill Windben
13.05.2013 00:15 10,2 C 84 % 1013,5 hPa 0,3 l/m 2,5 km/h (1 Bft) S-SW 200 0 min 0 W/m 7,6 C 10,2 C 2,5 km/h (1 Bft)
13.05.2013 00:30 10,1 C 84 % 1012,5 hPa 0,0 l/m 8,1 km/h (2 Bft) SW 230 0 min 0 W/m 7,5 C 8,9 C 8,1 km/h (2 Bft)
13.05.2013 00:44 10,0 C 84 % 1012,5 hPa 0,0 l/m 2,3 km/h (1 Bft) W-SW 240 0 min 0 W/m 7,4 C 10,0 C 2,3 km/h (1 Bft)
13.05.2013 01:00 10,0 C 85 % 1012,5 hPa 0,0 l/m 0,1 km/h (0 Bft) W-SW 240 0 min 0 W/m 7,6 C 10,0 C 0,1 km/h (0 Bft)
13.05.2013 01:15 10,0 C 85 % 1012,5 hPa 0,0 l/m 4,5 km/h (1 Bft) W-SW 240 0 min 0 W/m 7,6 C 10,0 C 4,5 km/h (1 Bft)
13.05.2013 01:29 9,9 C 85 % 1012,5 hPa 0,0 l/m 4,7 km/h (1 Bft) W-SW 240 0 min 0 W/m 7,5 C 9,9 C 4,7 km/h (1 Bft)
13.05.2013 01:44 10,0 C 86 % 1012,5 hPa 0,0 l/m 8,4 km/h (2 Bft) W-SW 240 0 min 0 W/m 7,8 C 8,6 C 8,4 km/h (2 Bft)
13.05.2013 02:00 10,0 C 86 % 1012,5 hPa 0,0 l/m 4,0 km/h (1 Bft) W-SW 240 0 min 0 W/m 7,8 C 10,0 C 4,0 km/h (1 Bft)
13.05.2013 02:15 9,9 C 86 % 1012,5 hPa 0,0 l/m 8,5 km/h (2 Bft) S-SW 205 0 min 0 W/m 7,7 C 8,4 C 8,5 km/h (2 Bft)
13.05.2013 02:29 9,8 C 86 % 1011,5 hPa 0,0 l/m 10,1 km/h (2 Bft) S-SW 200 0 min 0 W/m 7,6 C 7,3 C 10,1 km/h (2 Bft)
13.05.2013 02:44 9,8 C 87 % 1011,5 hPa 0,0 l/m 11,4 km/h (2 Bft) SW 215 0 min 0 W/m 7,7 C 6,6 C 11,4 km/h (2 Bft)
13.05.2013 03:00 9,7 C 87 % 1011,5 hPa 0,0 l/m 12,1 km/h (2 Bft) SW 220 0 min 0 W/m 7,6 C 6,1 C 12,1 km/h (2 Bft)
13.05.2013 03:15 9,7 C 87 % 1011,5 hPa 0,0 l/m 9,8 km/h (2 Bft) SW 220 0 min 0 W/m 7,6 C 7,4 C 9,8 km/h (2 Bft)
13.05.2013 03:29 9,6 C 87 % 1011,5 hPa 0,0 l/m 13,5 km/h (3 Bft) SW 215 0 min 0 W/m 7,5 C 5,3 C 13,5 km/h (3 Bft)
13.05.2013 03:44 9,5 C 88 % 1011,5 hPa 0,0 l/m 13,1 km/h (3 Bft) SW 230 0 min 0 W/m 7,6 C 5,4 C 13,1 km/h (3 Bft)
13.05.2013 04:00 9,5 C 88 % 1011,5 hPa 0,0 l/m 12,4 km/h (2 Bft) SW 225 0 min 0 W/m 7,6 C 5,7 C 12,4 km/h (2 Bft)
13.05.2013 04:15 9,5 C 88 % 1011,5 hPa 0,0 l/m 10,1 km/h (2 Bft) SW 230 0 min 0 W/m 7,6 C 7,0 C 10,1 km/h (2 Bft)
13.05.2013 04:29 9,4 C 88 % 1010,5 hPa 0,0 l/m 14,3 km/h (3 Bft) S-SW 210 0 min 0 W/m 7,5 C 4,7 C 14,3 km/h (3 Bft)
13.05.2013 04:44 9,3 C 88 % 1010,5 hPa 0,0 l/m 14,7 km/h (3 Bft) SW 215 0 min 0 W/m 7,4 C 4,4 C 14,7 km/h (3 Bft)
13.05.2013 05:00 9,3 C 88 % 1010,5 hPa 0,0 l/m 12,3 km/h (2 Bft) SW 215 0 min 0 W/m 7,4 C 5,6 C 12,3 km/h (2 Bft)
13.05.2013 05:15 9,2 C 88 % 1010,5 hPa 0,0 l/m 13,1 km/h (3 Bft) SW 215 0 min 0 W/m 7,3 C 5,0 C 13,1 km/h (3 Bft)
13.05.2013 05:29 9,1 C 88 % 1010,5 hPa 0,0 l/m 14,9 km/h (3 Bft) SW 220 0 min 0 W/m 7,2 C 4,1 C 14,9 km/h (3 Bft)
13.05.2013 05:44 9,2 C 88 % 1009,5 hPa 0,0 l/m 12,3 km/h (2 Bft) SW 215 0 min 0 W/m 7,3 C 5,4 C 12,3 km/h (2 Bft)
13.05.2013 06:00 9,2 C 88 % 1009,5 hPa 0,0 l/m 13,0 km/h (3 Bft) SW 215 0 min 0 W/m 7,3 C 5,1 C 13,0 km/h (3 Bft)
13.05.2013 06:15 9,2 C 88 % 1009,5 hPa 0,0 l/m 16,5 km/h (3 Bft) SW 225 0 min 0 W/m 7,3 C 3,5 C 16,5 km/h (3 Bft)
13.05.2013 06:29 9,3 C 88 % 1009,5 hPa 0,0 l/m 16,3 km/h (3 Bft) SW 235 0 min 0 W/m 7,4 C 3,7 C 16,3 km/h (3 Bft)
13.05.2013 06:44 9,3 C 87 % 1009,5 hPa 0,0 l/m 18,8 km/h (3 Bft) SW 230 0 min 0 W/m 7,2 C 2,8 C 18,8 km/h (3 Bft)
13.05.2013 07:00 9,5 C 87 % 1009,5 hPa 0,0 l/m 20,4 km/h (4 Bft) SW 225 0 min 0 W/m 7,4 C 2,5 C 20,4 km/h (4 Bft)
13.05.2013 07:15 9,6 C 86 % 1009,5 hPa 0,0 l/m 17,2 km/h (3 Bft) SW 220 0 min 0 W/m 7,4 C 3,8 C 17,2 km/h (3 Bft)
13.05.2013 07:30 9,6 C 85 % 1009,5 hPa 0,0 l/m 21,3 km/h (4 Bft) W-SW 240 0 min 0 W/m 7,2 C 2,4 C 21,3 km/h (4 Bft)
13.05.2013 07:45 9,7 C 85 % 1009,5 hPa 0,0 l/m 26,8 km/h (4 Bft) W 270 0 min 0 W/m 7,3 C 1,0 C 26,8 km/h (4 Bft)
13.05.2013 08:00 9,8 C 84 % 1008,5 hPa 0,0 l/m 22,8 km/h (4 Bft) W-SW 255 0 min 0 W/m 7,2 C 2,2 C 22,8 km/h (4 Bft)
13.05.2013 08:14 10,0 C 84 % 1008,5 hPa 0,0 l/m 27,6 km/h (5 Bft) W-SW 240 0 min 0 W/m 7,4 C 1,2 C 27,6 km/h (5 Bft)
13.05.2013 08:30 10,2 C 83 % 1008,5 hPa 0,0 l/m 21,0 km/h (4 Bft) W-SW 240 0 min 0 W/m 7,4 C 3,2 C 21,0 km/h (4 Bft)
13.05.2013 08:45 10,3 C 83 % 1008,5 hPa 0,0 l/m 25,0 km/h (4 Bft) SW 235 0 min 0 W/m 7,5 C 2,2 C 25,0 km/h (4 Bft)
13.05.2013 09:00 10,4 C 84 % 1008,5 hPa 0,0 l/m 23,9 km/h (4 Bft) W 260 0 min 0 W/m 7,8 C 2,7 C 23,9 km/h (4 Bft)
13.05.2013 09:15 10,5 C 84 % 1008,5 hPa 0,0 l/m 27,5 km/h (5 Bft) W-SW 250 0 min 0 W/m 7,9 C 1,9 C 27,5 km/h (5 Bft)
13.05.2013 09:30 10,4 C 84 % 1008,5 hPa 0,0 l/m 23,3 km/h (4 Bft) W-SW 255 0 min 0 W/m 7,8 C 2,8 C 23,3 km/h (4 Bft)
13.05.2013 09:45 10,4 C 84 % 1008,5 hPa 0,0 l/m 29,2 km/h (5 Bft) W-SW 240 0 min 0 W/m 7,8 C 1,4 C 29,2 km/h (5 Bft)
13.05.2013 10:00 10,5 C 85 % 1008,5 hPa 0,0 l/m 17,8 km/h (3 Bft) W 260 0 min 0 W/m 8,1 C 4,7 C 17,8 km/h (3 Bft)
13.05.2013 10:15 10,4 C 85 % 1008,5 hPa 0,0 l/m 26,6 km/h (4 Bft) W 260 0 min 0 W/m 8,0 C 2,0 C 26,6 km/h (4 Bft)
13.05.2013 10:30 10,6 C 85 % 1008,5 hPa 0,0 l/m 23,9 km/h (4 Bft) W-SW 240 0 min 0 W/m 8,2 C 2,9 C 23,9 km/h (4 Bft)
13.05.2013 10:45 10,7 C 86 % 1008,5 hPa 0,0 l/m 23,9 km/h (4 Bft) W-SW 250 0 min 0 W/m 8,5 C 3,1 C 23,9 km/h (4 Bft)
13.05.2013 11:00 10,7 C 86 % 1008,5 hPa 0,0 l/m 26,5 km/h (4 Bft) W-SW 250 0 min 0 W/m 8,5 C 2,4 C 26,5 km/h (4 Bft)
13.05.2013 11:15 10,8 C 87 % 1008,5 hPa 0,3 l/m 24,8 km/h (4 Bft) W-SW 240 0 min 0 W/m 8,7 C 3,0 C 24,8 km/h (4 Bft)
13.05.2013 11:30 10,8 C 88 % 1008,5 hPa 0,0 l/m 21,1 km/h (4 Bft) SW 230 0 min 0 W/m 8,9 C 4,0 C 21,1 km/h (4 Bft)
13.05.2013 11:45 11,2 C 89 % 1007,5 hPa 0,0 l/m 22,8 km/h (4 Bft) W-SW 245 0 min 0 W/m 9,5 C 4,0 C 22,8 km/h (4 Bft)
13.05.2013 12:00 11,2 C 89 % 1007,5 hPa 0,0 l/m 25,3 km/h (4 Bft) W-SW 255 0 min 0 W/m 9,5 C 3,4 C 25,3 km/h (4 Bft)
13.05.2013 12:15 11,2 C 89 % 1007,5 hPa 0,0 l/m 21,1 km/h (4 Bft) W 260 0 min 0 W/m 9,5 C 4,5 C 21,1 km/h (4 Bft)
13.05.2013 12:30 11,4 C 90 % 1007,5 hPa 0,0 l/m 26,3 km/h (4 Bft) W-SW 250 0 min 0 W/m 9,8 C 3,4 C 26,3 km/h (4 Bft)
13.05.2013 12:45 11,6 C 90 % 1007,5 hPa 0,0 l/m 24,9 km/h (4 Bft) W 260 0 min 0 W/m 10,0 C 4,0 C 24,9 km/h (4 Bft)
13.05.2013 13:00 11,8 C 89 % 1007,5 hPa 0,0 l/m 21,6 km/h (4 Bft) W-SW 245 0 min 0 W/m 10,0 C 5,2 C 21,6 km/h (4 Bft)
13.05.2013 13:15 11,7 C 89 % 1007,5 hPa 0,0 l/m 21,6 km/h (4 Bft) W 265 0 min 0 W/m 9,9 C 5,0 C 21,6 km/h (4 Bft)
13.05.2013 13:30 11,8 C 90 % 1007,5 hPa 0,3 l/m 27,7 km/h (5 Bft) W 265 0 min 0 W/m 10,2 C 3,7 C 27,7 km/h (5 Bft)
13.05.2013 13:45 11,9 C 90 % 1007,5 hPa 0,3 l/m 21,5 km/h (4 Bft) W-SW 250 0 min 0 W/m 10,3 C 5,3 C 21,5 km/h (4 Bft)
13.05.2013 14:00 11,2 C 89 % 1007,5 hPa 0,9 l/m 30,0 km/h (5 Bft) W-NW 285 0 min 0 W/m 9,5 C 2,3 C 30,0 km/h (5 Bft)
13.05.2013 14:15 11,5 C 89 % 1007,5 hPa 0,3 l/m 19,1 km/h (3 Bft) W-NW 295 0 min 0 W/m 9,8 C 5,5 C 19,1 km/h (3 Bft)
13.05.2013 14:30 11,4 C 89 % 1007,5 hPa 0,0 l/m 23,6 km/h (4 Bft) NW 310 0 min 0 W/m 9,7 C 4,1 C 23,6 km/h (4 Bft)
13.05.2013 14:45 11,6 C 89 % 1007,5 hPa 0,0 l/m 24,8 km/h (4 Bft) NW 320 0 min 0 W/m 9,8 C 4,0 C 24,8 km/h (4 Bft)
13.05.2013 15:00 11,8 C 88 % 1007,5 hPa 0,0 l/m 24,5 km/h (4 Bft) NW 310 0 min 0 W/m 9,9 C 4,4 C 24,5 km/h (4 Bft)
13.05.2013 15:15 12,2 C 86 % 1008,5 hPa 0,0 l/m 26,4 km/h (4 Bft) W-NW 300 0 min 0 W/m 9,9 C 4,5 C 26,4 km/h (4 Bft)
13.05.2013 15:30 13,2 C 82 % 1007,5 hPa 0,0 l/m 23,8 km/h (4 Bft) NW 320 0 min 0 W/m 10,2 C 6,4 C 23,8 km/h (4 Bft)
13.05.2013 15:45 13,0 C 76 % 1008,5 hPa 0,0 l/m 22,3 km/h (4 Bft) W-NW 295 0 min 0 W/m 8,9 C 6,5 C 22,3 km/h (4 Bft)
13.05.2013 16:00 12,7 C 74 % 1008,5 hPa 0,0 l/m 30,2 km/h (5 Bft) NW 305 0 min 0 W/m 8,2 C 4,4 C 30,2 km/h (5 Bft)
13.05.2013 16:15 12,8 C 74 % 1008,5 hPa 0,0 l/m 27,3 km/h (5 Bft) NW 305 0 min 0 W/m 8,3 C 5,1 C 27,3 km/h (5 Bft)
13.05.2013 16:30 12,6 C 73 % 1008,5 hPa 0,0 l/m 30,6 km/h (5 Bft) NW 310 0 min 0 W/m 7,9 C 4,2 C 30,6 km/h (5 Bft)
13.05.2013 16:45 12,2 C 75 % 1008,5 hPa 0,0 l/m 30,8 km/h (5 Bft) NW 320 0 min 0 W/m 7,9 C 3,6 C 30,8 km/h (5 Bft)
13.05.2013 17:00 11,9 C 74 % 1008,5 hPa 0,0 l/m 25,6 km/h (4 Bft) NW 320 0 min 0 W/m 7,4 C 4,3 C 25,6 km/h (4 Bft)
13.05.2013 17:15 11,5 C 73 % 1008,5 hPa 0,0 l/m 23,1 km/h (4 Bft) W-NW 300 0 min 0 W/m 6,8 C 4,3 C 23,1 km/h (4 Bft)
13.05.2013 17:30 11,0 C 71 % 1008,5 hPa 0,0 l/m 27,9 km/h (5 Bft) NW 315 0 min 0 W/m 5,9 C 2,5 C 27,9 km/h (5 Bft)
13.05.2013 17:45 10,9 C 70 % 1008,5 hPa 0,0 l/m 27,0 km/h (5 Bft) NW 315 0 min 0 W/m 5,6 C 2,6 C 27,0 km/h (5 Bft)
13.05.2013 18:00 10,9 C 71 % 1008,5 hPa 0,0 l/m 24,2 km/h (4 Bft) NW 310 0 min 0 W/m 5,9 C 3,3 C 24,2 km/h (4 Bft)
13.05.2013 18:15 10,8 C 73 % 1008,5 hPa 0,0 l/m 24,3 km/h (4 Bft) NW 320 0 min 0 W/m 6,2 C 3,1 C 24,3 km/h (4 Bft)
13.05.2013 18:30 10,8 C 72 % 1008,5 hPa 0,0 l/m 24,5 km/h (4 Bft) NW 325 0 min 0 W/m 6,0 C 3,0 C 24,5 km/h (4 Bft)
13.05.2013 18:45 10,7 C 72 % 1008,5 hPa 0,0 l/m 24,5 km/h (4 Bft) NW 315 0 min 0 W/m 5,9 C 2,9 C 24,5 km/h (4 Bft)
13.05.2013 19:00 10,5 C 71 % 1008,5 hPa 0,0 l/m 21,1 km/h (4 Bft) NW 325 0 min 0 W/m 5,5 C 3,6 C 21,1 km/h (4 Bft)
13.05.2013 19:15 10,4 C 70 % 1008,5 hPa 0,0 l/m 22,0 km/h (4 Bft) NW 325 0 min 0 W/m 5,2 C 3,2 C 22,0 km/h (4 Bft)
13.05.2013 19:30 10,4 C 70 % 1008,5 hPa 0,0 l/m 18,6 km/h (3 Bft) NW 320 0 min 0 W/m 5,2 C 4,3 C 18,6 km/h (3 Bft)
13.05.2013 19:45 10,3 C 69 % 1008,5 hPa 0,0 l/m 20,0 km/h (4 Bft) NW 310 0 min 0 W/m 4,9 C 3,7 C 20,0 km/h (4 Bft)
13.05.2013 20:00 10,3 C 68 % 1008,5 hPa 0,0 l/m 18,1 km/h (3 Bft) NW 325 0 min 0 W/m 4,7 C 4,3 C 18,1 km/h (3 Bft)
13.05.2013 20:15 10,3 C 69 % 1008,5 hPa 0,0 l/m 12,2 km/h (2 Bft) NW 315 0 min 0 W/m 4,9 C 6,8 C 12,2 km/h (2 Bft)
13.05.2013 20:30 10,3 C 70 % 1008,5 hPa 0,0 l/m 13,6 km/h (3 Bft) W-NW 295 0 min 0 W/m 5,1 C 6,1 C 13,6 km/h (3 Bft)
13.05.2013 20:45 10,2 C 70 % 1008,5 hPa 0,0 l/m 12,9 km/h (3 Bft) W-NW 300 0 min 0 W/m 5,0 C 6,3 C 12,9 km/h (3 Bft)
13.05.2013 21:00 10,3 C 71 % 1008,5 hPa 0,0 l/m 9,4 km/h (2 Bft) NW 315 0 min 0 W/m 5,3 C 8,3 C 9,4 km/h (2 Bft)
13.05.2013 21:15 10,3 C 71 % 1008,5 hPa 0,0 l/m 9,0 km/h (2 Bft) W-NW 300 0 min 0 W/m 5,3 C 8,5 C 9,0 km/h (2 Bft)
13.05.2013 21:30 10,2 C 72 % 1008,5 hPa 0,0 l/m 7,9 km/h (2 Bft) W 260 0 min 0 W/m 5,4 C 9,1 C 7,9 km/h (2 Bft)
13.05.2013 21:45 10,0 C 73 % 1008,5 hPa 0,0 l/m 3,6 km/h (1 Bft) W 260 0 min 0 W/m 5,4 C 10,0 C 3,6 km/h (1 Bft)
13.05.2013 22:00 9,6 C 74 % 1008,5 hPa 0,0 l/m 0,0 km/h (0 Bft) W 260 0 min 0 W/m 5,2 C 9,6 C 0,0 km/h (0 Bft)
13.05.2013 22:15 9,4 C 75 % 1008,5 hPa 0,0 l/m 0,0 km/h (0 Bft) W 260 0 min 0 W/m 5,2 C 9,4 C 0,0 km/h (0 Bft)
13.05.2013 22:30 9,4 C 76 % 1007,5 hPa 0,0 l/m 0,3 km/h (0 Bft) W 260 0 min 0 W/m 5,4 C 9,4 C 0,3 km/h (0 Bft)
13.05.2013 22:45 9,4 C 76 % 1007,5 hPa 0,0 l/m 4,6 km/h (1 Bft) S-SW 210 0 min 0 W/m 5,4 C 9,4 C 4,6 km/h (1 Bft)
13.05.2013 23:00 9,3 C 77 % 1007,5 hPa 0,0 l/m 5,4 km/h (2 Bft) S-SO 160 0 min 0 W/m 5,5 C 9,3 C 5,4 km/h (2 Bft)
13.05.2013 23:15 9,3 C 77 % 1007,5 hPa 0,0 l/m 8,2 km/h (2 Bft) S 175 0 min 0 W/m 5,5 C 8,0 C 8,2 km/h (2 Bft)
13.05.2013 23:30 9,2 C 77 % 1007,5 hPa 0,0 l/m 10,0 km/h (2 Bft) S-SO 160 0 min 0 W/m 5,4 C 6,7 C 10,0 km/h (2 Bft)
13.05.2013 23:45 9,2 C 77 % 1006,5 hPa 0,0 l/m 7,8 km/h (2 Bft) S-SO 160 0 min 0 W/m 5,4 C 8,2 C 7,8 km/h (2 Bft)
13.05.2013 23:59 9,2 C 78 % 1006,5 hPa 0,0 l/m 11,3 km/h (2 Bft) S 180 0 min 0 W/m 5,6 C 6,0 C 11,3 km/h (2 Bft)
_ Min-Zeit 05:29 20:00 23:45 - 22:00 - - - - 20:00 07:45 22:00
Minimum _ 9,1 C 68 % 1006,5 hPa - 0,0 km/h (0 Bft) - - - - 4,7 C 1,0 C 0,0 km/h (0 Bft)
_ Max-Zeit 15:30 12:30 00:15 14:00 16:45 - - 00:15 00:15 13:45 00:15 16:45
Maximum _ 13,2 C 90 % 1013,5 hPa 0,9 l/m 30,8 km/h
NW (5 Bft)
- - 0 min 0 W/m 10,3 C 10,2 C 30,8 km/h
NW (5 Bft)
Durchschnitt _ 10,4 C 82 % 1009,1 hPa #2,4 l/m 17,5 km/h (3 Bft) NW - #0 min. 0 W/m 7,4 C 5,2 C 17,5 km/h (3 Bft)
copyright by Holger Just